createdAt,value
2018-12-23T00:03:56.442Z,99580.80
2018-12-23T00:08:57.274Z,99579.96
2018-12-23T00:13:58.137Z,99573.09
2018-12-23T00:18:58.936Z,99575.82
2018-12-23T00:23:59.783Z,99575.25
2018-12-23T00:29:00.643Z,99582.00
2018-12-23T00:34:02.610Z,99587.62
2018-12-23T00:39:04.813Z,99588.07
2018-12-23T00:44:05.757Z,99599.38
2018-12-23T00:49:06.584Z,99593.56
2018-12-23T00:54:07.637Z,99602.84
2018-12-23T00:59:15.635Z,99606.84
2018-12-23T01:04:17.172Z,99601.00
2018-12-23T01:09:21.463Z,99610.64
2018-12-23T01:14:23.644Z,99611.19
2018-12-23T01:19:24.714Z,99612.33
2018-12-23T01:24:31.451Z,99614.93
2018-12-23T01:29:32.365Z,99613.78
2018-12-23T01:34:37.164Z,99615.83
2018-12-23T01:39:37.535Z,99619.41
2018-12-23T01:44:39.029Z,99622.85
2018-12-23T01:49:40.182Z,99637.09
2018-12-23T01:54:41.006Z,99643.16
2018-12-23T01:59:43.255Z,99645.28
2018-12-23T02:04:44.467Z,99639.97
2018-12-23T02:09:45.835Z,99637.02
2018-12-23T02:14:46.781Z,99636.22
2018-12-23T02:19:47.862Z,99615.89
2018-12-23T02:24:48.907Z,99620.23
2018-12-23T02:29:50.756Z,99632.83
2018-12-23T02:34:51.780Z,99633.60
2018-12-23T02:39:53.318Z,99639.30
2018-12-23T02:44:54.382Z,99648.09
2018-12-23T02:49:55.163Z,99654.15
2018-12-23T02:54:55.971Z,99665.75
2018-12-23T02:59:56.732Z,99656.72
2018-12-23T03:04:57.643Z,99668.92
2018-12-23T03:09:58.407Z,99665.05
2018-12-23T03:14:59.089Z,99664.64
2018-12-23T03:19:59.860Z,99665.50
2018-12-23T03:25:01.736Z,99655.14
2018-12-23T03:30:03.827Z,99656.34
2018-12-23T03:35:04.999Z,99653.45
2018-12-23T03:40:05.803Z,99640.84
2018-12-23T03:45:06.718Z,99631.83
2018-12-23T03:50:07.766Z,99635.97
2018-12-23T03:55:08.562Z,99638.98
2018-12-23T04:00:09.876Z,99630.40
2018-12-23T04:05:11.478Z,99646.61
2018-12-23T04:10:12.347Z,99637.49
2018-12-23T04:15:13.113Z,99630.11
2018-12-23T04:20:13.915Z,99627.26
2018-12-23T04:25:15.064Z,99627.26
2018-12-23T04:30:15.954Z,99636.89
2018-12-23T04:35:16.725Z,99632.77
2018-12-23T04:40:17.481Z,99633.56
2018-12-23T04:45:18.308Z,99632.14
2018-12-23T04:50:19.141Z,99623.52
2018-12-23T04:55:20.070Z,99628.72
2018-12-23T05:00:20.901Z,99615.44
2018-12-23T05:05:21.757Z,99628.91
2018-12-23T05:10:22.596Z,99619.44
2018-12-23T05:15:24.283Z,99604.70
2018-12-23T05:20:25.145Z,99618.05
2018-12-23T05:31:17.467Z,99614.78
2018-12-23T05:36:18.639Z,99608.19
2018-12-23T05:41:21.630Z,99613.10
2018-12-23T05:46:22.686Z,99609.80
2018-12-23T05:51:23.861Z,99610.06
2018-12-23T05:56:24.931Z,99605.41
2018-12-23T06:01:26.311Z,99625.80
2018-12-23T06:06:27.466Z,99618.64
2018-12-23T06:11:28.308Z,99614.43
2018-12-23T06:16:29.444Z,99617.19
2018-12-23T06:21:30.495Z,99610.19
2018-12-23T06:26:31.745Z,99618.98
2018-12-23T06:31:32.826Z,99611.16
2018-12-23T06:36:33.824Z,99610.17
2018-12-23T06:41:35.066Z,99617.81
2018-12-23T06:46:36.243Z,99616.35
2018-12-23T06:51:38.970Z,99620.39
2018-12-23T06:56:40.335Z,99623.05
2018-12-23T07:01:41.187Z,99633.35
2018-12-23T07:06:42.350Z,99623.65
2018-12-23T07:11:43.544Z,99620.61
2018-12-23T07:16:44.924Z,99621.17
2018-12-23T07:21:46.213Z,99626.38
2018-12-23T07:26:47.488Z,99627.94
2018-12-23T07:31:48.806Z,99629.97
2018-12-23T07:36:52.657Z,99629.19
2018-12-23T07:41:53.809Z,99633.79
2018-12-23T07:46:59.496Z,99631.71
2018-12-23T07:52:02.243Z,99638.17
2018-12-23T07:57:03.439Z,99632.06
2018-12-23T08:02:05.960Z,99615.77
2018-12-23T08:07:08.326Z,99626.90
2018-12-23T08:12:11.597Z,99621.52
2018-12-23T08:17:12.349Z,99625.45
2018-12-23T08:22:13.536Z,99623.02
2018-12-23T08:27:16.340Z,99626.47
2018-12-23T08:32:17.591Z,99617.28
2018-12-23T08:37:18.788Z,99619.34
2018-12-23T08:42:20.189Z,99608.25
2018-12-23T08:47:21.486Z,99620.92
2018-12-23T08:52:22.580Z,99615.94
2018-12-23T08:57:23.566Z,99611.64
2018-12-23T09:02:24.851Z,99607.46
2018-12-23T09:07:26.207Z,99603.35
2018-12-23T09:12:27.420Z,99595.68
2018-12-23T09:17:28.382Z,99600.41
2018-12-23T09:22:31.586Z,99594.17
2018-12-23T09:27:32.613Z,99589.27
2018-12-23T09:32:33.921Z,99588.20
2018-12-23T09:37:34.811Z,99574.45
2018-12-23T09:42:36.021Z,99572.94
2018-12-23T09:47:37.015Z,99570.73
2018-12-23T09:52:38.422Z,99577.19
2018-12-23T09:57:40.044Z,99572.17
2018-12-23T10:02:42.309Z,99566.20
2018-12-23T10:07:43.219Z,99568.47
2018-12-23T10:12:44.352Z,99558.13
2018-12-23T10:17:45.655Z,99545.56
2018-12-23T10:22:48.655Z,99545.44
2018-12-23T10:28:07.850Z,99536.98
2018-12-23T10:33:08.777Z,99530.47
2018-12-23T10:38:09.714Z,99520.05
2018-12-23T10:43:12.212Z,99514.16
2018-12-23T10:48:13.889Z,99498.30
2018-12-23T10:53:16.501Z,99496.75
2018-12-23T10:58:17.555Z,99477.94
2018-12-23T11:03:18.910Z,99463.37
2018-12-23T11:08:26.864Z,99444.69
2018-12-23T11:13:35.324Z,99434.26
2018-12-23T11:18:36.251Z,99421.70
2018-12-23T11:23:53.113Z,99400.70
2018-12-23T11:28:51.663Z,99394.86
2018-12-23T11:33:52.760Z,99379.03
2018-12-23T11:38:54.127Z,99373.86
2018-12-23T11:43:55.349Z,99373.56
2018-12-23T11:48:56.780Z,99371.19
2018-12-23T11:53:57.878Z,99359.38
2018-12-23T11:58:59.376Z,99347.83
2018-12-23T12:04:00.577Z,99337.36
2018-12-23T12:09:06.961Z,99325.03
2018-12-23T12:14:04.569Z,99335.38
2018-12-23T12:19:05.700Z,99320.63
2018-12-23T12:24:06.778Z,99315.67
2018-12-23T12:29:07.874Z,99302.33
2018-12-23T12:34:09.001Z,99290.58
2018-12-23T12:39:10.083Z,99288.67
2018-12-23T12:44:11.087Z,99292.37
2018-12-23T12:49:13.310Z,99292.51
2018-12-23T12:54:14.548Z,99286.05
2018-12-23T12:59:15.456Z,99275.25
2018-12-23T13:04:16.672Z,99258.39
2018-12-23T13:09:17.487Z,99249.13
2018-12-23T13:14:18.819Z,99237.66
2018-12-23T13:19:20.250Z,99231.69
2018-12-23T13:24:21.131Z,99213.80
2018-12-23T13:29:22.114Z,99213.83
2018-12-23T13:34:23.729Z,99196.09
2018-12-23T13:39:25.117Z,99177.75
2018-12-23T13:44:41.585Z,99176.52
2018-12-23T13:50:09.057Z,99159.70
2018-12-23T13:55:35.298Z,99144.93
2018-12-23T14:01:06.014Z,99130.23
2018-12-23T14:06:08.462Z,99112.61
2018-12-23T14:16:50.978Z,99094.80
2018-12-23T14:21:52.259Z,99082.27
2018-12-23T14:26:53.284Z,99074.67
2018-12-23T14:31:54.377Z,99076.72
2018-12-23T14:36:55.208Z,99058.65
2018-12-23T14:41:56.275Z,99033.48
2018-12-23T14:47:11.198Z,99034.63
2018-12-23T14:52:13.339Z,99036.30
2018-12-23T14:57:14.337Z,99023.14
2018-12-23T15:02:15.588Z,99014.33
2018-12-23T15:07:17.160Z,99012.21
2018-12-23T15:12:18.140Z,98999.91
2018-12-23T15:17:24.351Z,98991.99
2018-12-23T15:22:26.437Z,98987.47
2018-12-23T15:27:27.518Z,98967.66
2018-12-23T15:32:28.664Z,98945.84
2018-12-23T15:46:23.336Z,98951.05
2018-12-23T15:48:17.725Z,98933.63
2018-12-23T15:53:18.761Z,98922.67
2018-12-23T15:58:19.600Z,98916.95
2018-12-23T16:03:20.440Z,98906.93
2018-12-23T16:13:50.506Z,98892.10
2018-12-23T16:18:51.632Z,98877.00
2018-12-23T16:23:52.597Z,98862.78
2018-12-23T16:29:00.467Z,98853.09
2018-12-23T16:34:01.618Z,98842.91
2018-12-23T16:39:05.481Z,98825.41
2018-12-23T16:44:07.035Z,98834.58
2018-12-23T16:49:08.103Z,98845.66
2018-12-23T16:54:09.337Z,98842.87
2018-12-23T16:59:10.527Z,98830.01
2018-12-23T17:04:45.091Z,98813.80
2018-12-23T17:09:46.259Z,98808.30
2018-12-23T17:14:47.527Z,98802.25
2018-12-23T17:19:48.615Z,98786.00
2018-12-23T17:24:50.332Z,98768.38
2018-12-23T17:29:56.291Z,98774.86
2018-12-23T17:34:57.377Z,98760.32
2018-12-23T17:39:58.438Z,98757.66
2018-12-23T17:44:59.237Z,98772.20
2018-12-23T17:50:04.303Z,98761.78
2018-12-23T17:55:21.654Z,98742.66
2018-12-23T18:00:22.737Z,98727.97
2018-12-23T18:05:30.198Z,98726.59
2018-12-23T18:10:39.208Z,98723.88
2018-12-23T18:15:48.877Z,98707.78
2018-12-23T18:20:54.117Z,98690.41
2018-12-23T18:25:55.758Z,98684.32
2018-12-23T18:30:59.792Z,98677.67
2018-12-23T18:36:00.998Z,98677.99
2018-12-23T18:41:13.683Z,98671.62
2018-12-23T18:46:32.792Z,98662.23
2018-12-23T18:56:57.503Z,98651.09
2018-12-23T19:01:59.041Z,98640.27
2018-12-23T19:07:15.555Z,98639.11
2018-12-23T19:12:53.705Z,98649.83
2018-12-23T19:18:03.704Z,98631.12
2018-12-23T19:23:29.679Z,98615.66
2018-12-23T19:28:42.574Z,98602.38
2018-12-23T19:33:56.747Z,98598.57
2018-12-23T19:39:18.981Z,98609.55
2018-12-23T19:44:27.140Z,98611.84
2018-12-23T19:49:51.674Z,98615.09
2018-12-23T19:55:03.751Z,98609.76
2018-12-23T20:00:40.768Z,98595.98
2018-12-23T20:06:02.323Z,98597.02
2018-12-23T20:11:22.331Z,98586.11
2018-12-23T20:16:33.916Z,98583.50
2018-12-23T20:22:02.127Z,98584.84
2018-12-23T20:27:29.708Z,98601.56
2018-12-23T20:32:34.552Z,98595.06
2018-12-23T20:37:40.537Z,98590.47
2018-12-23T20:43:08.592Z,98567.69
2018-12-23T20:48:36.846Z,98573.63
2018-12-23T20:53:48.566Z,98574.84
2018-12-23T20:59:03.854Z,98576.37
2018-12-23T21:04:23.157Z,98584.05
2018-12-23T21:09:49.270Z,98592.25
2018-12-23T21:15:18.032Z,98582.02
2018-12-23T21:26:23.327Z,98602.83
2018-12-23T21:31:49.646Z,98614.63
2018-12-23T21:37:01.189Z,98605.86
2018-12-23T21:42:12.347Z,98597.02
2018-12-23T21:47:36.813Z,98581.50
2018-12-23T21:52:50.883Z,98579.34
2018-12-23T21:58:02.394Z,98563.88
2018-12-23T22:03:29.941Z,98559.50
2018-12-23T22:08:46.645Z,98550.09
2018-12-23T22:13:47.916Z,98559.06
2018-12-23T22:20:12.439Z,98558.02
2018-12-23T22:24:54.216Z,98548.23
2018-12-23T22:29:55.335Z,98532.09
2018-12-23T22:34:56.355Z,98563.88
2018-12-23T22:39:57.279Z,98550.05
2018-12-23T22:44:58.390Z,98564.63
2018-12-23T22:49:59.591Z,98553.13
2018-12-23T22:55:00.477Z,98548.60
2018-12-23T23:00:01.656Z,98528.23
2018-12-23T23:05:52.309Z,98568.52
2018-12-23T23:10:49.497Z,98591.81
2018-12-23T23:15:50.579Z,98619.14
2018-12-23T23:20:51.618Z,98652.99
2018-12-23T23:25:52.413Z,98683.09
2018-12-23T23:30:53.484Z,98700.22
2018-12-23T23:35:54.573Z,98713.01
2018-12-23T23:40:55.441Z,98713.35
2018-12-23T23:45:56.289Z,98738.13
2018-12-23T23:50:57.167Z,98752.13
2018-12-23T23:55:59.130Z,98778.34
